createdAt,value
2023-02-11T00:00:00.742Z,100469.06
2023-02-11T00:05:02.769Z,100455.25
2023-02-11T00:10:07.978Z,100449.78
2023-02-11T00:15:10.544Z,100444.72
2023-02-11T00:20:12.390Z,100439.31
2023-02-11T00:25:13.992Z,100439.81
2023-02-11T00:30:16.638Z,100441.19
2023-02-11T00:35:18.354Z,100432.84
2023-02-11T00:40:20.184Z,100423.09
2023-02-11T00:45:21.885Z,100429.00
2023-02-11T00:50:24.019Z,100429.81
2023-02-11T00:55:25.810Z,100424.91
2023-02-11T01:00:28.025Z,100414.84
2023-02-11T01:05:29.854Z,100414.63
2023-02-11T01:10:31.816Z,100401.75
2023-02-11T01:15:33.998Z,100402.72
2023-02-11T01:20:35.755Z,100386.22
2023-02-11T01:25:37.411Z,100393.69
2023-02-11T01:30:39.454Z,100370.31
2023-02-11T01:35:41.457Z,100375.56
2023-02-11T01:41:04.115Z,100371.47
2023-02-11T01:46:23.774Z,100367.13
2023-02-11T01:51:31.285Z,100350.78
2023-02-11T01:56:53.505Z,100325.25
2023-02-11T02:02:02.077Z,100337.88
2023-02-11T02:07:10.357Z,100315.91
2023-02-11T02:12:12.127Z,100320.63
2023-02-11T02:17:29.528Z,100324.53
2023-02-11T02:23:03.955Z,100318.47
2023-02-11T02:28:32.770Z,100321.34
2023-02-11T02:33:42.473Z,100323.66
2023-02-11T02:38:51.043Z,100316.13
2023-02-11T02:43:53.547Z,100309.66
2023-02-11T02:48:56.368Z,100300.91
2023-02-11T02:53:57.945Z,100309.84
2023-02-11T02:59:15.778Z,100297.53
2023-02-11T03:04:21.030Z,100293.81
2023-02-11T03:09:32.536Z,100291.38
2023-02-11T03:14:36.501Z,100289.25
2023-02-11T03:19:44.550Z,100285.53
2023-02-11T03:24:46.967Z,100282.97
2023-02-11T03:30:14.879Z,100280.34
2023-02-11T03:35:38.307Z,100290.19
2023-02-11T03:40:43.724Z,100292.69
2023-02-11T03:45:48.507Z,100284.72
2023-02-11T03:50:52.864Z,100280.94
2023-02-11T03:55:57.394Z,100284.88
2023-02-11T04:00:59.182Z,100280.16
2023-02-11T04:06:00.921Z,100265.22
2023-02-11T04:11:02.613Z,100263.28
2023-02-11T04:16:04.433Z,100251.47
2023-02-11T04:21:06.202Z,100254.41
2023-02-11T04:26:07.853Z,100240.31
2023-02-11T04:31:10.876Z,100231.41
2023-02-11T04:36:12.991Z,100218.72
2023-02-11T04:41:14.648Z,100226.81
2023-02-11T04:46:16.376Z,100226.53
2023-02-11T04:51:18.071Z,100215.84
2023-02-11T04:56:19.836Z,100204.13
2023-02-11T05:01:21.754Z,100214.97
2023-02-11T05:06:23.425Z,100211.25
2023-02-11T05:11:26.081Z,100218.22
2023-02-11T05:16:28.207Z,100208.63
2023-02-11T05:21:29.863Z,100199.72
2023-02-11T05:26:32.498Z,100191.03
2023-02-11T05:31:34.209Z,100195.47
2023-02-11T05:36:36.021Z,100198.13
2023-02-11T05:41:38.364Z,100202.78
2023-02-11T05:46:40.095Z,100194.88
2023-02-11T05:51:41.899Z,100194.78
2023-02-11T05:56:44.963Z,100196.94
2023-02-11T06:01:46.750Z,100208.66
2023-02-11T06:06:48.386Z,100207.41
2023-02-11T06:11:50.126Z,100199.16
2023-02-11T06:16:51.878Z,100191.84
2023-02-11T06:21:53.568Z,100197.78
2023-02-11T06:26:55.353Z,100199.28
2023-02-11T06:31:57.140Z,100195.44
2023-02-11T06:36:58.996Z,100188.34
2023-02-11T06:42:00.665Z,100181.38
2023-02-11T06:47:02.432Z,100176.09
2023-02-11T06:52:04.334Z,100170.84
2023-02-11T06:57:06.052Z,100159.09
2023-02-11T07:02:10.391Z,100168.78
2023-02-11T07:07:12.116Z,100157.84
2023-02-11T07:12:14.016Z,100171.88
2023-02-11T07:17:16.047Z,100180.88
2023-02-11T07:22:17.729Z,100179.47
2023-02-11T07:27:19.402Z,100169.19
2023-02-11T07:32:21.905Z,100181.41
2023-02-11T07:37:23.615Z,100185.13
2023-02-11T07:42:25.333Z,100185.13
2023-02-11T07:47:27.180Z,100193.16
2023-02-11T07:52:31.725Z,100199.00
2023-02-11T07:57:33.463Z,100204.38
2023-02-11T08:02:36.118Z,100197.66
2023-02-11T08:07:37.935Z,100196.81
2023-02-11T08:12:39.631Z,100200.34
2023-02-11T08:17:41.343Z,100186.13
2023-02-11T08:22:43.054Z,100192.09
2023-02-11T08:27:44.825Z,100186.13
2023-02-11T08:32:46.634Z,100185.22
2023-02-11T08:37:48.325Z,100168.13
2023-02-11T08:42:50.037Z,100173.41
2023-02-11T08:47:52.858Z,100169.19
2023-02-11T08:52:54.512Z,100175.19
2023-02-11T08:57:56.910Z,100172.78
2023-02-11T09:02:58.646Z,100166.84
2023-02-11T09:08:00.373Z,100169.88
2023-02-11T09:13:02.445Z,100176.88
2023-02-11T09:18:05.431Z,100166.81
2023-02-11T09:23:07.327Z,100156.78
2023-02-11T09:28:09.773Z,100156.00
2023-02-11T09:33:11.491Z,100155.75
2023-02-11T09:38:13.219Z,100143.63
2023-02-11T09:43:17.909Z,100139.38
2023-02-11T09:48:22.546Z,100143.72
2023-02-11T09:53:30.108Z,100136.63
2023-02-11T09:58:35.666Z,100131.41
2023-02-11T10:04:19.572Z,100126.34
2023-02-11T10:09:24.034Z,100127.16
2023-02-11T10:14:34.089Z,100126.59
2023-02-11T10:20:04.698Z,100106.81
2023-02-11T10:25:24.508Z,100100.44
2023-02-11T10:30:32.990Z,100093.47
2023-02-11T10:35:34.757Z,100072.38
2023-02-11T10:40:36.432Z,100042.19
2023-02-11T10:45:43.083Z,100035.97
2023-02-11T10:50:45.009Z,100036.41
2023-02-11T10:56:07.542Z,100015.31
2023-02-11T11:01:23.527Z,100016.66
2023-02-11T11:06:32.774Z,100026.44
2023-02-11T11:11:51.406Z,100009.38
2023-02-11T11:16:54.629Z,100014.88
2023-02-11T11:21:56.796Z,99999.22
2023-02-11T11:27:01.856Z,100001.22
2023-02-11T11:32:11.678Z,99991.22
2023-02-11T11:37:20.508Z,99975.63
2023-02-11T11:42:26.680Z,99975.38
2023-02-11T11:47:41.217Z,99964.13
2023-02-11T11:53:00.286Z,99945.09
2023-02-11T11:58:02.209Z,99930.41
2023-02-11T12:03:33.182Z,99930.38
2023-02-11T12:09:01.790Z,99935.63
2023-02-11T12:14:36.988Z,99932.16
2023-02-11T12:20:20.041Z,99915.59
2023-02-11T12:25:37.201Z,99915.53
2023-02-11T12:30:38.927Z,99909.44
2023-02-11T12:36:08.603Z,99887.63
2023-02-11T12:41:47.732Z,99887.66
2023-02-11T12:47:14.321Z,99879.66
2023-02-11T12:52:47.722Z,99862.06
2023-02-11T12:57:52.552Z,99849.97
2023-02-11T13:02:57.797Z,99836.00
2023-02-11T13:08:33.026Z,99821.13
2023-02-11T13:13:47.558Z,99810.16
2023-02-11T13:18:57.646Z,99798.06
2023-02-11T13:24:12.591Z,99797.47
2023-02-11T13:29:34.754Z,99795.22
2023-02-11T13:34:42.271Z,99792.38
2023-02-11T13:39:58.675Z,99791.75
2023-02-11T13:45:02.438Z,99796.97
2023-02-11T13:50:07.858Z,99793.03
2023-02-11T13:55:23.463Z,99792.53
2023-02-11T14:00:37.430Z,99788.16
2023-02-11T14:06:26.723Z,99774.03
2023-02-11T14:11:35.857Z,99786.47
2023-02-11T14:17:04.361Z,99795.03
2023-02-11T14:22:13.593Z,99791.75
2023-02-11T14:27:29.754Z,99791.78
2023-02-11T14:32:47.883Z,99795.25
2023-02-11T14:37:58.777Z,99811.81
2023-02-11T14:43:16.775Z,99810.03
2023-02-11T14:48:22.826Z,99813.22
2023-02-11T14:53:26.731Z,99805.66
2023-02-11T14:58:33.258Z,99799.34
2023-02-11T15:03:40.394Z,99793.22
2023-02-11T15:08:55.284Z,99784.50
2023-02-11T15:14:01.156Z,99779.34
2023-02-11T15:19:08.044Z,99775.88
2023-02-11T15:24:31.454Z,99781.22
2023-02-11T15:29:45.175Z,99780.25
2023-02-11T15:34:51.183Z,99778.47
2023-02-11T15:39:56.296Z,99780.31
2023-02-11T15:45:17.183Z,99783.06
2023-02-11T15:50:22.961Z,99786.53
2023-02-11T15:55:27.637Z,99785.66
2023-02-11T16:00:37.623Z,99786.50
2023-02-11T16:05:41.757Z,99784.78
2023-02-11T16:10:58.880Z,99781.28
2023-02-11T16:16:19.044Z,99776.03
2023-02-11T16:21:22.718Z,99793.50
2023-02-11T16:26:33.812Z,99791.75
2023-02-11T16:31:42.097Z,99789.06
2023-02-11T16:36:45.412Z,99783.88
2023-02-11T16:41:48.327Z,99778.69
2023-02-11T16:46:51.515Z,99791.69
2023-02-11T16:52:01.527Z,99782.13
2023-02-11T16:57:20.878Z,99796.88
2023-02-11T17:02:29.121Z,99787.31
2023-02-11T17:07:31.604Z,99776.00
2023-02-11T17:12:35.983Z,99772.56
2023-02-11T17:17:40.059Z,99765.56
2023-02-11T17:22:42.384Z,99758.56
2023-02-11T17:27:45.723Z,99751.56
2023-02-11T17:32:53.264Z,99758.53
2023-02-11T17:37:55.871Z,99759.38
2023-02-11T17:42:58.030Z,99772.50
2023-02-11T17:48:02.279Z,99763.78
2023-02-11T17:53:07.822Z,99760.25
2023-02-11T17:58:11.720Z,99763.75
2023-02-11T18:03:15.619Z,99766.38
2023-02-11T18:08:18.346Z,99782.84
2023-02-11T18:13:21.244Z,99769.72
2023-02-11T18:18:24.092Z,99787.13
2023-02-11T18:23:27.026Z,99781.97
2023-02-11T18:28:29.854Z,99776.78
2023-02-11T18:33:32.648Z,99799.31
2023-02-11T18:38:38.754Z,99796.84
2023-02-11T18:43:43.814Z,99803.75
2023-02-11T18:48:46.819Z,99803.66
2023-02-11T18:53:51.464Z,99792.44
2023-02-11T18:58:58.957Z,99788.06
2023-02-11T19:04:04.864Z,99793.31
2023-02-11T19:09:11.870Z,99807.19
2023-02-11T19:14:18.094Z,99813.31
2023-02-11T19:19:24.516Z,99829.91
2023-02-11T19:24:28.777Z,99815.00
2023-02-11T19:29:35.936Z,99836.84
2023-02-11T19:34:42.032Z,99838.53
2023-02-11T19:39:45.006Z,99836.81
2023-02-11T19:44:47.844Z,99830.69
2023-02-11T19:49:50.900Z,99843.75
2023-02-11T19:54:55.903Z,99839.34
2023-02-11T19:59:59.557Z,99826.19
2023-02-11T20:05:02.474Z,99813.19
2023-02-11T20:10:07.460Z,99828.00
2023-02-11T20:15:11.026Z,99827.91
2023-02-11T20:20:13.799Z,99837.41
2023-02-11T20:25:17.169Z,99833.00
2023-02-11T20:30:20.042Z,99827.78
2023-02-11T20:35:22.529Z,99827.81
2023-02-11T20:40:25.538Z,99831.34
2023-02-11T20:45:28.311Z,99832.13
2023-02-11T20:50:32.059Z,99826.88
2023-02-11T20:55:39.835Z,99827.72
2023-02-11T21:00:42.603Z,99832.00
2023-02-11T21:05:45.391Z,99832.06
2023-02-11T21:10:50.320Z,99832.06
2023-02-11T21:15:58.495Z,99832.09
2023-02-11T21:21:02.182Z,99832.91
2023-02-11T21:26:04.538Z,99836.34
2023-02-11T21:31:07.131Z,99825.03
2023-02-11T21:36:11.052Z,99826.75
2023-02-11T21:41:13.796Z,99831.09
2023-02-11T21:46:19.463Z,99833.75
2023-02-11T21:51:26.596Z,99835.47
2023-02-11T21:56:31.133Z,99839.84
2023-02-11T22:01:35.724Z,99847.56
2023-02-11T22:06:41.519Z,99858.03
2023-02-11T22:11:43.684Z,99854.41
2023-02-11T22:16:46.588Z,99850.16
2023-02-11T22:21:48.358Z,99858.78
2023-02-11T22:26:51.349Z,99860.47
2023-02-11T22:31:53.178Z,99875.25
2023-02-11T22:36:55.148Z,99888.25
2023-02-11T22:41:57.580Z,99891.75
2023-02-11T22:46:59.218Z,99891.75
2023-02-11T22:52:00.947Z,99897.88
2023-02-11T22:57:02.690Z,99917.84
2023-02-11T23:02:04.493Z,99903.06
2023-02-11T23:07:06.226Z,99904.81
2023-02-11T23:12:07.927Z,99904.81
2023-02-11T23:17:09.621Z,99907.47
2023-02-11T23:22:11.333Z,99910.94
2023-02-11T23:27:13.709Z,99917.94
2023-02-11T23:32:15.518Z,99903.16
2023-02-11T23:37:17.232Z,99913.56
2023-02-11T23:42:18.895Z,99913.56
2023-02-11T23:47:20.514Z,99926.63
2023-02-11T23:52:22.223Z,99924.88
2023-02-11T23:57:23.895Z,99926.69
